Time;durP1;ratioP1;P1;durP2;ratioP2;P2;SDS_P1;SDS_P2;PMS_P1;PMS_P2;Temp;Humidity;BMP_temperature;BMP_pressure;BME280_temperature;BME280_humidity;BME280_pressure;Samples;Min_cycle;Max_cycle;Signal;HPM_P1;HPM_P2
2023/09/05 00:00:44;;;;;;;;;6.25;4.75;;;;;;;;5097607;27;45469;-70
2023/09/05 00:03:09;;;;;;;;;5.00;4.25;;;;;;;;5092753;27;45333;-72
2023/09/05 00:05:35;;;;;;;;;5.25;5.00;;;;;;;;5095804;27;46287;-71
2023/09/05 00:08:00;;;;;;;;;6.00;5.00;;;;;;;;5096247;27;45698;-71
2023/09/05 00:10:25;;;;;;;;;6.50;5.00;;;;;;;;5094001;27;45633;-73
2023/09/05 00:12:51;;;;;;;;;3.50;2.50;;;;;;;;5092568;27;45526;-73
2023/09/05 00:15:16;;;;;;;;;4.75;4.75;;;;;;;;5093936;27;45744;-71
2023/09/05 00:17:42;;;;;;;;;7.25;5.00;;;;;;;;5095556;27;45432;-72
2023/09/05 00:20:08;;;;;;;;;8.50;4.50;;;;;;;;5095939;27;45548;-72
2023/09/05 00:25:11;;;;;;;;;5.00;5.00;;;;;;;;5085982;27;46062;-72
2023/09/05 00:27:40;;;;;;;;;5.00;5.00;;;;;;;;5096044;27;45684;-73
2023/09/05 00:30:05;;;;;;;;;5.25;2.75;;;;;;;;5095714;27;45395;-72
2023/09/05 00:32:32;;;;;;;;;8.00;6.25;;;;;;;;5090024;27;45473;-72
2023/09/05 00:34:58;;;;;;;;;5.75;5.00;;;;;;;;5089888;27;45628;-73
2023/09/05 00:37:23;;;;;;;;;6.00;5.25;;;;;;;;5096121;27;45473;-73
2023/09/05 00:39:49;;;;;;;;;9.00;6.75;;;;;;;;5094775;27;45420;-72
2023/09/05 00:42:15;;;;;;;;;8.00;8.00;;;;;;;;5095779;27;45495;-71
2023/09/05 00:44:41;;;;;;;;;7.25;5.00;;;;;;;;5095402;27;45576;-72
2023/09/05 00:47:07;;;;;;;;;4.00;4.00;;;;;;;;5077129;27;45371;-72
2023/09/05 00:49:39;;;;;;;;;2.25;2.25;;;;;;;;5077623;27;45744;-71
2023/09/05 00:52:05;;;;;;;;;7.00;7.00;;;;;;;;5088325;27;45585;-72
2023/09/05 00:54:31;;;;;;;;;4.00;4.00;;;;;;;;5089237;27;45512;-71
2023/09/05 00:56:57;;;;;;;;;7.75;6.75;;;;;;;;5095432;27;45473;-74
2023/09/05 00:59:22;;;;;;;;;9.25;7.00;;;;;;;;5095598;27;46163;-72
2023/09/05 01:01:48;;;;;;;;;9.25;6.50;;;;;;;;5094362;27;45638;-72
2023/09/05 01:04:13;;;;;;;;;7.50;6.50;;;;;;;;5094857;27;46210;-71
2023/09/05 01:06:38;;;;;;;;;6.25;6.25;;;;;;;;5084167;27;45245;-74
2023/09/05 01:09:11;;;;;;;;;7.00;6.00;;;;;;;;5076596;27;46687;-72
2023/09/05 01:11:38;;;;;;;;;9.00;6.50;;;;;;;;5087368;27;45418;-72
2023/09/05 01:14:03;;;;;;;;;5.50;5.50;;;;;;;;5085939;27;45678;-72
2023/09/05 01:16:28;;;;;;;;;6.00;6.00;;;;;;;;5091680;27;45490;-71
2023/09/05 01:18:54;;;;;;;;;5.25;5.25;;;;;;;;5095755;27;45389;-72
2023/09/05 01:21:35;;;;;;;;;7.25;6.00;;;;;;;;5092334;27;45360;-72
2023/09/05 01:24:20;;;;;;;;;5.00;5.00;;;;;;;;5094837;27;45444;-73
2023/09/05 01:26:46;;;;;;;;;6.25;6.25;;;;;;;;5078092;27;45558;-72
2023/09/05 01:29:11;;;;;;;;;5.75;5.50;;;;;;;;5076908;27;45599;-71
2023/09/05 01:31:37;;;;;;;;;8.50;7.25;;;;;;;;5077418;27;45516;-71
2023/09/05 01:34:02;;;;;;;;;5.00;4.00;;;;;;;;5073852;28;46927;-73
2023/09/05 01:36:27;;;;;;;;;6.00;6.00;;;;;;;;5090769;27;45651;-72
2023/09/05 01:38:52;;;;;;;;;5.50;5.50;;;;;;;;5095024;27;45713;-70
2023/09/05 01:41:17;;;;;;;;;8.67;8.67;;;;;;;;5093998;27;46289;-73
2023/09/05 01:43:43;;;;;;;;;7.25;6.25;;;;;;;;5095887;27;45905;-72
2023/09/05 01:46:09;;;;;;;;;7.75;7.00;;;;;;;;5096252;27;45305;-73
2023/09/05 01:48:34;;;;;;;;;3.50;3.00;;;;;;;;5095866;27;45896;-71
2023/09/05 01:51:00;;;;;;;;;6.50;6.50;;;;;;;;5094828;27;45717;-71
2023/09/05 01:53:26;;;;;;;;;6.00;6.00;;;;;;;;5095037;27;45506;-71
2023/09/05 01:55:51;;;;;;;;;8.00;6.75;;;;;;;;5088637;27;45388;-72
2023/09/05 01:58:17;;;;;;;;;7.25;7.25;;;;;;;;5095277;27;45396;-72
2023/09/05 02:00:42;;;;;;;;;5.00;5.00;;;;;;;;5094462;27;45688;-73
2023/09/05 02:03:07;;;;;;;;;6.00;6.00;;;;;;;;5094193;27;45441;-73
2023/09/05 02:05:33;;;;;;;;;5.25;5.25;;;;;;;;5095003;27;45420;-71
2023/09/05 02:07:58;;;;;;;;;6.25;6.25;;;;;;;;5075978;27;45687;-71
2023/09/05 02:10:23;;;;;;;;;8.25;7.00;;;;;;;;5093407;27;45523;-72
2023/09/05 02:12:49;;;;;;;;;6.50;6.00;;;;;;;;5094909;27;45754;-71
2023/09/05 02:15:15;;;;;;;;;5.75;4.50;;;;;;;;5094662;27;45353;-73
2023/09/05 02:17:40;;;;;;;;;12.50;7.25;;;;;;;;5095265;27;45337;-73
2023/09/05 02:20:06;;;;;;;;;5.25;5.25;;;;;;;;5095121;27;45446;-73
2023/09/05 02:22:31;;;;;;;;;7.25;7.25;;;;;;;;5096363;27;45265;-73
2023/09/05 02:24:56;;;;;;;;;10.00;7.25;;;;;;;;5098509;27;45640;-74
2023/09/05 02:27:21;;;;;;;;;7.50;7.50;;;;;;;;5078512;27;45774;-73
2023/09/05 02:29:49;;;;;;;;;7.50;6.75;;;;;;;;5079355;27;45866;-74
2023/09/05 02:32:17;;;;;;;;;10.33;6.00;;;;;;;;5099252;27;45817;-77
2023/09/05 02:34:42;;;;;;;;;5.75;5.00;;;;;;;;5081196;27;45810;-75
2023/09/05 02:37:07;;;;;;;;;6.00;6.00;;;;;;;;5099138;27;45387;-74
2023/09/05 02:39:33;;;;;;;;;10.75;7.75;;;;;;;;5079978;27;45633;-73
2023/09/05 02:41:58;;;;;;;;;6.50;5.75;;;;;;;;5094485;27;46078;-75
2023/09/05 02:44:23;;;;;;;;;10.00;9.25;;;;;;;;5087410;27;45742;-73
2023/09/05 02:46:50;;;;;;;;;2.75;2.75;;;;;;;;5092532;27;45786;-73
2023/09/05 02:49:16;;;;;;;;;7.25;6.25;;;;;;;;5078605;27;45783;-74
2023/09/05 02:51:41;;;;;;;;;11.00;8.00;;;;;;;;5085130;27;46489;-73
2023/09/05 02:54:06;;;;;;;;;8.75;6.00;;;;;;;;5091246;27;45773;-73
2023/09/05 02:56:31;;;;;;;;;9.33;6.00;;;;;;;;5090801;27;45357;-73
2023/09/05 02:58:57;;;;;;;;;8.00;8.00;;;;;;;;5097742;27;45246;-73
2023/09/05 03:01:22;;;;;;;;;6.75;6.75;;;;;;;;5098049;27;46259;-74
2023/09/05 03:03:48;;;;;;;;;7.50;7.00;;;;;;;;5078821;27;45985;-73
2023/09/05 03:06:14;;;;;;;;;7.00;6.00;;;;;;;;5097404;27;45370;-74
2023/09/05 03:08:42;;;;;;;;;7.00;7.00;;;;;;;;5076447;27;46013;-73
2023/09/05 03:11:07;;;;;;;;;7.00;6.25;;;;;;;;5077382;27;47047;-74
2023/09/05 03:13:33;;;;;;;;;6.50;6.25;;;;;;;;5098101;27;45692;-74
2023/09/05 03:15:58;;;;;;;;;9.33;8.00;;;;;;;;5072749;27;45345;-74
2023/09/05 03:18:25;;;;;;;;;10.33;9.00;;;;;;;;5079966;27;45392;-74
2023/09/05 03:20:50;;;;;;;;;9.50;7.00;;;;;;;;5079281;27;46179;-73
2023/09/05 03:23:16;;;;;;;;;7.25;7.00;;;;;;;;5097761;27;45394;-73
2023/09/05 03:25:41;;;;;;;;;11.00;10.33;;;;;;;;5096933;27;45405;-73
2023/09/05 03:28:07;;;;;;;;;10.50;10.50;;;;;;;;5088632;27;46560;-72
2023/09/05 03:30:32;;;;;;;;;9.50;7.75;;;;;;;;5095733;27;46382;-73
2023/09/05 03:32:57;;;;;;;;;10.33;6.67;;;;;;;;5071302;27;45696;-73
2023/09/05 03:35:23;;;;;;;;;10.33;8.33;;;;;;;;5086792;27;46256;-71
2023/09/05 03:37:48;;;;;;;;;12.00;9.33;;;;;;;;5078170;27;46084;-72
2023/09/05 03:40:13;;;;;;;;;6.00;5.33;;;;;;;;5097396;27;45383;-73
2023/09/05 03:42:38;;;;;;;;;8.50;8.50;;;;;;;;5096461;27;45597;-72
2023/09/05 03:45:04;;;;;;;;;8.75;8.00;;;;;;;;5079391;27;45334;-71
2023/09/05 03:47:29;;;;;;;;;10.75;9.25;;;;;;;;5093457;27;45659;-71
2023/09/05 03:49:55;;;;;;;;;12.00;9.67;;;;;;;;5096184;27;46382;-71
2023/09/05 03:52:20;;;;;;;;;9.67;9.00;;;;;;;;5097305;27;45682;-71
2023/09/05 03:54:45;;;;;;;;;10.00;6.75;;;;;;;;5096479;27;45856;-72
2023/09/05 03:57:10;;;;;;;;;8.50;6.75;;;;;;;;5096354;27;45533;-71
2023/09/05 03:59:36;;;;;;;;;9.67;9.67;;;;;;;;5097041;27;45396;-70
2023/09/05 04:02:01;;;;;;;;;10.67;9.00;;;;;;;;5096676;27;45528;-71
2023/09/05 04:04:26;;;;;;;;;12.75;10.75;;;;;;;;5097045;27;45465;-71
2023/09/05 04:06:51;;;;;;;;;12.00;12.00;;;;;;;;5096360;27;45292;-72
2023/09/05 04:09:17;;;;;;;;;8.33;8.33;;;;;;;;5096652;27;45663;-72
2023/09/05 04:11:42;;;;;;;;;12.67;8.67;;;;;;;;5096833;27;45737;-72
2023/09/05 04:14:08;;;;;;;;;7.67;7.33;;;;;;;;5093827;27;45730;-73
2023/09/05 04:16:33;;;;;;;;;13.33;8.00;;;;;;;;5096188;27;45826;-70
2023/09/05 04:18:58;;;;;;;;;10.33;9.33;;;;;;;;5096743;27;46293;-71
2023/09/05 04:21:23;;;;;;;;;18.00;12.00;;;;;;;;5086056;27;45767;-72
2023/09/05 04:23:49;;;;;;;;;9.33;9.33;;;;;;;;5076896;27;45428;-71
2023/09/05 04:26:14;;;;;;;;;10.67;10.00;;;;;;;;5097171;27;45519;-71
2023/09/05 04:28:40;;;;;;;;;8.67;7.00;;;;;;;;5094264;27;45950;-70
2023/09/05 04:31:05;;;;;;;;;11.67;10.67;;;;;;;;5085667;27;45312;-72
2023/09/05 04:33:37;;;;;;;;;12.00;12.00;;;;;;;;5093539;27;45322;-71
2023/09/05 04:36:02;;;;;;;;;10.33;8.00;;;;;;;;5094907;27;45458;-71
2023/09/05 04:38:27;;;;;;;;;10.00;9.00;;;;;;;;5087941;27;45448;-71
2023/09/05 04:40:53;;;;;;;;;10.00;7.67;;;;;;;;5078250;27;45783;-70
2023/09/05 04:43:18;;;;;;;;;7.00;7.00;;;;;;;;5096675;27;45348;-72
2023/09/05 04:45:52;;;;;;;;;9.00;6.00;;;;;;;;5091525;27;45789;-73
2023/09/05 04:48:17;;;;;;;;;8.33;8.33;;;;;;;;5094595;27;45569;-71
2023/09/05 04:50:42;;;;;;;;;9.67;9.67;;;;;;;;5095355;27;45608;-72
2023/09/05 04:53:07;;;;;;;;;8.00;7.00;;;;;;;;5095187;27;45840;-71
2023/09/05 04:55:33;;;;;;;;;8.00;6.33;;;;;;;;5086361;27;46316;-69
2023/09/05 04:57:58;;;;;;;;;11.00;9.33;;;;;;;;5065913;27;47716;-71
2023/09/05 05:00:25;;;;;;;;;11.33;10.00;;;;;;;;5092304;27;45822;-71
2023/09/05 05:02:51;;;;;;;;;10.33;8.33;;;;;;;;5091706;27;45475;-72
2023/09/05 05:05:16;;;;;;;;;8.00;8.00;;;;;;;;5090643;27;45458;-71
2023/09/05 05:07:41;;;;;;;;;12.00;9.50;;;;;;;;5092681;27;45484;-73
2023/09/05 05:10:07;;;;;;;;;7.67;7.67;;;;;;;;5093293;27;45493;-72
2023/09/05 05:12:32;;;;;;;;;9.67;8.67;;;;;;;;5093447;27;45984;-72
2023/09/05 05:14:58;;;;;;;;;10.67;9.33;;;;;;;;5093823;27;45848;-72
2023/09/05 05:17:23;;;;;;;;;10.00;10.00;;;;;;;;5091788;27;46641;-72
2023/09/05 05:19:48;;;;;;;;;11.67;10.00;;;;;;;;5091807;27;45423;-74
2023/09/05 05:22:13;;;;;;;;;13.00;11.33;;;;;;;;5082172;27;46060;-73
2023/09/05 05:24:39;;;;;;;;;12.00;10.33;;;;;;;;5071240;27;46992;-72
2023/09/05 05:27:04;;;;;;;;;11.33;11.33;;;;;;;;5088758;27;45660;-73
2023/09/05 05:29:32;;;;;;;;;9.33;8.67;;;;;;;;5067719;27;45619;-75
2023/09/05 05:31:59;;;;;;;;;20.33;14.00;;;;;;;;5070490;27;45818;-68
2023/09/05 05:34:24;;;;;;;;;18.67;13.33;;;;;;;;5076433;27;46290;-73
2023/09/05 05:36:49;;;;;;;;;15.67;12.67;;;;;;;;5074558;27;46452;-68
2023/09/05 05:39:15;;;;;;;;;15.00;12.67;;;;;;;;5078223;27;45986;-67
2023/09/05 05:41:41;;;;;;;;;12.00;9.00;;;;;;;;5080199;27;46641;-68
2023/09/05 05:44:06;;;;;;;;;12.00;10.33;;;;;;;;5077740;27;45639;-68
2023/09/05 05:46:31;;;;;;;;;10.67;10.67;;;;;;;;5081756;27;46315;-69
2023/09/05 05:48:58;;;;;;;;;14.00;10.67;;;;;;;;5072650;27;45790;-67
2023/09/05 05:51:23;;;;;;;;;7.67;7.00;;;;;;;;5061637;27;45809;-68
2023/09/05 05:53:49;;;;;;;;;10.33;8.33;;;;;;;;5075035;27;46077;-67
2023/09/05 05:56:15;;;;;;;;;10.67;10.00;;;;;;;;5081904;27;45926;-68
2023/09/05 05:58:40;;;;;;;;;8.00;8.00;;;;;;;;5075537;27;45536;-70
2023/09/05 06:01:07;;;;;;;;;13.33;7.67;;;;;;;;5080995;27;45691;-67
2023/09/05 06:03:35;;;;;;;;;9.25;9.25;;;;;;;;5081008;27;45419;-68
2023/09/05 06:06:00;;;;;;;;;13.25;9.00;;;;;;;;5061012;27;46747;-67
2023/09/05 06:08:26;;;;;;;;;8.75;8.25;;;;;;;;5083820;27;45762;-68
2023/09/05 06:10:51;;;;;;;;;10.50;7.75;;;;;;;;5058042;27;45431;-68
2023/09/05 06:13:16;;;;;;;;;10.50;9.25;;;;;;;;5076155;27;45613;-70
2023/09/05 06:15:41;;;;;;;;;8.50;7.00;;;;;;;;5082042;27;46536;-67
2023/09/05 06:18:08;;;;;;;;;11.25;11.25;;;;;;;;5065346;27;46031;-66
2023/09/05 06:20:34;;;;;;;;;8.75;8.75;;;;;;;;5075995;27;45367;-68
2023/09/05 06:23:00;;;;;;;;;10.75;10.50;;;;;;;;5077212;27;45871;-67
2023/09/05 06:25:25;;;;;;;;;9.25;8.25;;;;;;;;5078064;27;46036;-68
2023/09/05 06:27:50;;;;;;;;;11.25;11.25;;;;;;;;5072345;27;45426;-68
2023/09/05 06:30:16;;;;;;;;;10.75;8.50;;;;;;;;5079268;27;45465;-67
2023/09/05 06:32:41;;;;;;;;;14.75;12.00;;;;;;;;5089258;27;45689;-67
2023/09/05 06:35:07;;;;;;;;;11.00;9.50;;;;;;;;5081291;27;45633;-68
2023/09/05 06:37:35;;;;;;;;;8.00;8.00;;;;;;;;5093906;27;45840;-68
2023/09/05 06:40:00;;;;;;;;;9.50;7.75;;;;;;;;5070074;27;45363;-69
2023/09/05 06:42:26;;;;;;;;;12.50;11.25;;;;;;;;5092670;27;45656;-70
2023/09/05 06:44:51;;;;;;;;;8.25;8.25;;;;;;;;5091453;27;45707;-69
2023/09/05 06:47:17;;;;;;;;;9.50;8.75;;;;;;;;5091971;27;45489;-70
2023/09/05 06:49:42;;;;;;;;;12.75;11.00;;;;;;;;5089673;27;45798;-71
2023/09/05 06:52:07;;;;;;;;;6.75;6.25;;;;;;;;5089003;27;45655;-71
2023/09/05 06:54:33;;;;;;;;;8.75;8.00;;;;;;;;5086892;27;45461;-72
2023/09/05 06:56:58;;;;;;;;;11.25;10.25;;;;;;;;5091812;27;45341;-69
2023/09/05 06:59:23;;;;;;;;;8.00;8.00;;;;;;;;5090071;27;45853;-67
2023/09/05 07:01:48;;;;;;;;;10.25;10.25;;;;;;;;5087874;27;46202;-67
2023/09/05 07:04:14;;;;;;;;;9.00;8.25;;;;;;;;5087859;27;46176;-70
2023/09/05 07:06:42;;;;;;;;;9.00;8.00;;;;;;;;5087223;27;45696;-69
2023/09/05 07:09:07;;;;;;;;;9.75;9.25;;;;;;;;5081895;27;45910;-69
2023/09/05 07:11:36;;;;;;;;;11.25;10.25;;;;;;;;5072330;27;45386;-69
2023/09/05 07:14:01;;;;;;;;;11.50;10.50;;;;;;;;5071872;27;47809;-68
2023/09/05 07:16:26;;;;;;;;;8.75;8.75;;;;;;;;5085230;27;45420;-69
2023/09/05 07:18:52;;;;;;;;;9.00;9.00;;;;;;;;5084867;27;45346;-70
2023/09/05 07:21:17;;;;;;;;;9.75;8.50;;;;;;;;5070075;27;46064;-70
2023/09/05 07:23:42;;;;;;;;;10.00;9.50;;;;;;;;5086412;27;45511;-68
2023/09/05 07:26:08;;;;;;;;;10.50;9.25;;;;;;;;5070744;27;45432;-67
2023/09/05 07:28:33;;;;;;;;;12.00;10.50;;;;;;;;5088758;27;45705;-69
2023/09/05 07:30:59;;;;;;;;;10.00;10.00;;;;;;;;5091399;27;45578;-68
2023/09/05 07:33:24;;;;;;;;;8.50;8.25;;;;;;;;5085990;27;45401;-69
2023/09/05 07:35:49;;;;;;;;;8.00;8.00;;;;;;;;5073076;27;45282;-69
2023/09/05 07:38:16;;;;;;;;;11.00;10.00;;;;;;;;5081682;27;45864;-68
2023/09/05 07:40:41;;;;;;;;;10.25;9.25;;;;;;;;5076981;27;45870;-68
2023/09/05 07:43:06;;;;;;;;;11.25;10.50;;;;;;;;5078831;27;45634;-68
2023/09/05 07:45:32;;;;;;;;;11.75;10.75;;;;;;;;5075813;27;45743;-70
2023/09/05 07:47:57;;;;;;;;;16.50;10.00;;;;;;;;5081399;27;45764;-68
2023/09/05 07:50:22;;;;;;;;;15.75;11.25;;;;;;;;5080496;27;45662;-71
2023/09/05 07:52:48;;;;;;;;;11.25;9.00;;;;;;;;5080526;27;45634;-69
2023/09/05 07:55:13;;;;;;;;;11.00;9.00;;;;;;;;5078433;27;45609;-69
2023/09/05 07:57:38;;;;;;;;;8.00;5.50;;;;;;;;5083104;27;45586;-68
2023/09/05 08:00:04;;;;;;;;;8.25;7.75;;;;;;;;5080301;27;45858;-69
2023/09/05 08:02:29;;;;;;;;;7.75;7.75;;;;;;;;5077720;27;45489;-68
2023/09/05 08:04:55;;;;;;;;;8.50;7.00;;;;;;;;5085240;27;45539;-70
2023/09/05 08:07:20;;;;;;;;;6.00;6.00;;;;;;;;5081050;27;45436;-67
2023/09/05 08:09:47;;;;;;;;;11.00;8.00;;;;;;;;5079773;27;45667;-69
2023/09/05 08:12:13;;;;;;;;;9.25;9.25;;;;;;;;5084233;27;47387;-69
2023/09/05 08:14:38;;;;;;;;;10.50;10.50;;;;;;;;5079894;27;45848;-69
2023/09/05 08:17:03;;;;;;;;;9.00;7.00;;;;;;;;5080155;27;45384;-69
2023/09/05 08:19:29;;;;;;;;;7.50;7.50;;;;;;;;5079045;27;46244;-69
2023/09/05 08:21:54;;;;;;;;;8.75;8.00;;;;;;;;5081284;27;45588;-68
2023/09/05 08:24:19;;;;;;;;;13.50;10.75;;;;;;;;5085704;27;45377;-69
2023/09/05 08:26:45;;;;;;;;;11.75;7.50;;;;;;;;5088690;27;45447;-72
2023/09/05 08:29:10;;;;;;;;;9.50;8.00;;;;;;;;5087061;27;45387;-68
2023/09/05 08:31:35;;;;;;;;;6.00;6.00;;;;;;;;5095430;27;45583;-69
2023/09/05 08:34:00;;;;;;;;;9.50;7.75;;;;;;;;5085960;27;45436;-68
2023/09/05 08:36:25;;;;;;;;;7.25;7.00;;;;;;;;5090401;27;45364;-71
2023/09/05 08:38:51;;;;;;;;;10.50;7.50;;;;;;;;5085608;27;45955;-71
2023/09/05 08:41:17;;;;;;;;;11.00;9.00;;;;;;;;5073144;27;48189;-70
2023/09/05 08:43:43;;;;;;;;;9.50;8.00;;;;;;;;5082791;27;46149;-70
2023/09/05 08:46:09;;;;;;;;;8.00;8.00;;;;;;;;5085613;27;45565;-70
2023/09/05 08:48:34;;;;;;;;;7.25;7.25;;;;;;;;5089048;27;45454;-70
2023/09/05 08:51:00;;;;;;;;;11.00;8.50;;;;;;;;5084784;27;48108;-70
2023/09/05 08:53:31;;;;;;;;;10.00;9.50;;;;;;;;5080079;27;45682;-69
2023/09/05 08:55:57;;;;;;;;;8.25;7.25;;;;;;;;5081655;27;45500;-70
2023/09/05 08:58:22;;;;;;;;;8.25;8.25;;;;;;;;5082219;27;45474;-70
2023/09/05 09:00:48;;;;;;;;;7.00;7.00;;;;;;;;5085923;27;46247;-70
2023/09/05 09:03:17;;;;;;;;;7.75;7.75;;;;;;;;5065171;27;45342;-71
2023/09/05 09:05:46;;;;;;;;;9.00;8.75;;;;;;;;5081494;27;45482;-70
2023/09/05 09:08:11;;;;;;;;;10.50;8.75;;;;;;;;5081652;27;46173;-69
2023/09/05 09:10:37;;;;;;;;;7.75;6.25;;;;;;;;5074036;27;47009;-70
2023/09/05 09:13:16;;;;;;;;;8.25;7.25;;;;;;;;5080845;27;45960;-70
2023/09/05 09:15:43;;;;;;;;;9.00;9.00;;;;;;;;5080716;27;45917;-70
2023/09/05 09:18:17;;;;;;;;;7.00;5.50;;;;;;;;5067508;27;46129;-71
2023/09/05 09:20:46;;;;;;;;;8.75;8.75;;;;;;;;5087349;27;45881;-69
2023/09/05 09:23:11;;;;;;;;;12.00;11.00;;;;;;;;5084336;27;45696;-70
2023/09/05 09:25:47;;;;;;;;;7.75;7.25;;;;;;;;5080574;27;45983;-69
2023/09/05 09:28:20;;;;;;;;;9.75;8.00;;;;;;;;5083735;27;45896;-72
2023/09/05 09:30:47;;;;;;;;;9.25;9.25;;;;;;;;5085689;27;46283;-73
2023/09/05 09:33:14;;;;;;;;;10.75;9.25;;;;;;;;5081586;27;45823;-73
2023/09/05 09:35:39;;;;;;;;;7.00;7.00;;;;;;;;5070930;28;45810;-71
2023/09/05 09:38:04;;;;;;;;;7.75;7.75;;;;;;;;5079609;27;45852;-71
2023/09/05 09:40:36;;;;;;;;;7.25;7.25;;;;;;;;5074271;27;45757;-72
2023/09/05 09:43:01;;;;;;;;;11.50;9.00;;;;;;;;5079503;27;45596;-72
2023/09/05 09:45:27;;;;;;;;;6.50;6.50;;;;;;;;5066753;27;46070;-76
2023/09/05 09:47:54;;;;;;;;;8.00;6.75;;;;;;;;5078971;27;47023;-71
2023/09/05 09:50:20;;;;;;;;;7.25;7.25;;;;;;;;5075436;27;47903;-71
2023/09/05 09:52:46;;;;;;;;;8.75;7.50;;;;;;;;5076145;27;45829;-73
2023/09/05 09:55:13;;;;;;;;;7.25;7.25;;;;;;;;5077557;27;45749;-71
2023/09/05 09:57:44;;;;;;;;;9.00;8.00;;;;;;;;5079409;27;45909;-71
2023/09/05 10:00:11;;;;;;;;;10.50;9.50;;;;;;;;5079151;27;45494;-71
2023/09/05 10:02:38;;;;;;;;;10.25;9.00;;;;;;;;5078261;27;45816;-71
2023/09/05 10:05:04;;;;;;;;;10.00;10.00;;;;;;;;5078905;27;45471;-71
2023/09/05 10:07:30;;;;;;;;;10.00;9.25;;;;;;;;5079361;27;45609;-75
2023/09/05 10:09:56;;;;;;;;;9.00;8.00;;;;;;;;5091980;27;45408;-71
2023/09/05 10:12:23;;;;;;;;;10.25;9.75;;;;;;;;5086822;27;45774;-70
2023/09/05 10:14:49;;;;;;;;;7.50;7.50;;;;;;;;5093025;27;45506;-73
2023/09/05 10:17:15;;;;;;;;;9.75;8.00;;;;;;;;5073128;27;45822;-73
2023/09/05 10:19:42;;;;;;;;;9.50;8.00;;;;;;;;5075282;27;48120;-74
2023/09/05 10:22:09;;;;;;;;;10.00;9.00;;;;;;;;5074609;27;45341;-71
2023/09/05 10:24:34;;;;;;;;;10.75;10.75;;;;;;;;5090120;27;45748;-70
2023/09/05 10:27:00;;;;;;;;;9.00;9.00;;;;;;;;5084476;27;45814;-70
2023/09/05 10:29:34;;;;;;;;;9.75;9.50;;;;;;;;5076345;27;46472;-71
2023/09/05 10:32:01;;;;;;;;;10.50;9.50;;;;;;;;5082518;27;45330;-69
2023/09/05 10:34:57;;;;;;;;;10.00;10.00;;;;;;;;5086482;27;45774;-72
2023/09/05 10:37:26;;;;;;;;;6.50;5.50;;;;;;;;5076115;27;45936;-67
2023/09/05 10:39:54;;;;;;;;;8.25;7.25;;;;;;;;5082957;27;45459;-70
2023/09/05 10:42:26;;;;;;;;;10.50;9.50;;;;;;;;5081403;27;45476;-70
2023/09/05 10:44:51;;;;;;;;;9.50;9.25;;;;;;;;5092631;27;46351;-71
2023/09/05 10:47:24;;;;;;;;;9.25;9.25;;;;;;;;5085475;27;45535;-71
2023/09/05 10:49:56;;;;;;;;;10.25;8.50;;;;;;;;5083165;27;46483;-70
2023/09/05 10:52:21;;;;;;;;;9.00;8.25;;;;;;;;5094210;27;45865;-69
2023/09/05 10:54:47;;;;;;;;;10.25;9.50;;;;;;;;5076478;27;45966;-70
2023/09/05 10:57:31;;;;;;;;;10.25;9.75;;;;;;;;5073314;27;47095;-70
2023/09/05 10:59:56;;;;;;;;;8.25;7.50;;;;;;;;5092230;27;47222;-71
2023/09/05 11:02:25;;;;;;;;;10.00;10.00;;;;;;;;5077111;27;45605;-70
2023/09/05 11:04:53;;;;;;;;;9.75;9.25;;;;;;;;5090104;27;45879;-70
2023/09/05 11:07:19;;;;;;;;;11.00;10.00;;;;;;;;5090552;27;45511;-70
2023/09/05 11:09:48;;;;;;;;;10.25;10.25;;;;;;;;5088808;27;45547;-70
2023/09/05 11:12:13;;;;;;;;;9.75;9.75;;;;;;;;5072721;27;45735;-69
2023/09/05 11:14:39;;;;;;;;;10.25;10.25;;;;;;;;5093443;27;45743;-73
2023/09/05 11:17:04;;;;;;;;;11.50;11.00;;;;;;;;5089660;27;45820;-71
2023/09/05 11:19:29;;;;;;;;;12.75;11.25;;;;;;;;5075178;27;46604;-69
2023/09/05 11:22:10;;;;;;;;;11.25;9.50;;;;;;;;5093390;27;45540;-70
2023/09/05 11:24:36;;;;;;;;;8.50;8.25;;;;;;;;5091650;27;45608;-67
2023/09/05 11:27:01;;;;;;;;;10.25;10.25;;;;;;;;5094665;27;45394;-69
2023/09/05 11:29:28;;;;;;;;;10.00;8.75;;;;;;;;5094630;27;45794;-69
2023/09/05 11:31:59;;;;;;;;;11.50;10.75;;;;;;;;5090786;27;45723;-68
2023/09/05 11:34:25;;;;;;;;;8.50;8.00;;;;;;;;5092184;27;45676;-68
2023/09/05 11:36:50;;;;;;;;;7.50;7.50;;;;;;;;5093841;27;45346;-68
2023/09/05 11:39:16;;;;;;;;;8.00;8.00;;;;;;;;5073208;27;46213;-68
2023/09/05 11:41:42;;;;;;;;;8.75;8.75;;;;;;;;5092381;27;46457;-68
2023/09/05 11:44:07;;;;;;;;;10.00;7.00;;;;;;;;5094101;27;45612;-66
2023/09/05 11:46:39;;;;;;;;;15.00;13.50;;;;;;;;5093579;27;45622;-70
2023/09/05 11:49:04;;;;;;;;;9.25;8.75;;;;;;;;5087922;27;45432;-70
2023/09/05 11:51:30;;;;;;;;;8.00;8.00;;;;;;;;5082754;27;46812;-70
2023/09/05 11:53:55;;;;;;;;;6.75;6.75;;;;;;;;5086808;27;46053;-70
2023/09/05 11:56:21;;;;;;;;;7.25;6.00;;;;;;;;5078719;27;45820;-71
2023/09/05 11:58:46;;;;;;;;;7.00;7.00;;;;;;;;5062405;27;46670;-68
2023/09/05 12:01:11;;;;;;;;;8.25;8.00;;;;;;;;5073198;27;45412;-68
2023/09/05 12:03:38;;;;;;;;;7.75;7.00;;;;;;;;5080676;27;45720;-71
2023/09/05 12:06:03;;;;;;;;;6.50;4.25;;;;;;;;5087138;27;46443;-69
2023/09/05 12:08:30;;;;;;;;;8.25;6.50;;;;;;;;5069763;27;48065;-71
2023/09/05 12:10:57;;;;;;;;;11.00;11.00;;;;;;;;5088012;27;45838;-71
2023/09/05 12:13:37;;;;;;;;;9.50;7.50;;;;;;;;5089032;27;45375;-70
2023/09/05 12:16:03;;;;;;;;;9.25;8.00;;;;;;;;5087504;27;45713;-69
2023/09/05 12:18:28;;;;;;;;;7.00;6.50;;;;;;;;5092698;27;46055;-71
2023/09/05 12:20:57;;;;;;;;;7.50;6.00;;;;;;;;5074993;27;45657;-70
2023/09/05 12:23:23;;;;;;;;;9.00;7.75;;;;;;;;5079746;27;45642;-71
2023/09/05 12:25:52;;;;;;;;;11.75;9.00;;;;;;;;5078548;27;45745;-69
2023/09/05 12:28:20;;;;;;;;;8.00;8.00;;;;;;;;5082138;27;46141;-69
2023/09/05 12:30:47;;;;;;;;;8.00;8.00;;;;;;;;5079092;27;45467;-68
2023/09/05 12:33:13;;;;;;;;;9.00;9.00;;;;;;;;5078391;27;45403;-71
2023/09/05 12:35:38;;;;;;;;;8.50;8.50;;;;;;;;5080917;27;45341;-69
2023/09/05 12:38:12;;;;;;;;;17.75;12.50;;;;;;;;5089220;27;45927;-70
2023/09/05 12:40:38;;;;;;;;;9.75;8.25;;;;;;;;5091753;27;45817;-67
2023/09/05 12:43:04;;;;;;;;;7.75;7.75;;;;;;;;5094825;27;45332;-67
2023/09/05 12:45:31;;;;;;;;;11.75;10.75;;;;;;;;5093127;27;45619;-67
2023/09/05 12:47:56;;;;;;;;;6.25;6.25;;;;;;;;5093647;27;47303;-66
2023/09/05 12:50:29;;;;;;;;;9.00;9.00;;;;;;;;5090089;27;45755;-68
2023/09/05 12:52:55;;;;;;;;;8.50;7.00;;;;;;;;5073466;27;45720;-68
2023/09/05 12:55:20;;;;;;;;;12.00;8.00;;;;;;;;5073434;27;45722;-68
2023/09/05 12:57:46;;;;;;;;;9.00;8.00;;;;;;;;5089385;27;46122;-67
2023/09/05 13:00:12;;;;;;;;;9.25;8.75;;;;;;;;5086503;27;45854;-70
2023/09/05 13:02:39;;;;;;;;;9.00;7.50;;;;;;;;5074889;27;45362;-70
2023/09/05 13:05:04;;;;;;;;;6.25;6.25;;;;;;;;5093011;27;45813;-66
2023/09/05 13:07:30;;;;;;;;;8.50;8.25;;;;;;;;5074237;27;45917;-69
2023/09/05 13:09:57;;;;;;;;;7.75;7.75;;;;;;;;5095886;27;45774;-69
2023/09/05 13:12:22;;;;;;;;;5.25;5.25;;;;;;;;5075355;27;45390;-67
2023/09/05 13:14:48;;;;;;;;;7.50;7.50;;;;;;;;5074601;27;45395;-68
2023/09/05 13:17:14;;;;;;;;;7.00;7.00;;;;;;;;5092976;27;45676;-66
2023/09/05 13:19:40;;;;;;;;;9.75;7.25;;;;;;;;5093413;27;45599;-68
2023/09/05 13:22:06;;;;;;;;;7.50;7.50;;;;;;;;5091549;27;46045;-68
2023/09/05 13:24:31;;;;;;;;;9.75;8.75;;;;;;;;5087365;27;45830;-68
2023/09/05 13:26:58;;;;;;;;;7.25;7.00;;;;;;;;5084110;27;45935;-68
2023/09/05 13:29:24;;;;;;;;;10.75;9.75;;;;;;;;5079403;27;46233;-68
2023/09/05 13:31:49;;;;;;;;;9.75;8.00;;;;;;;;5079319;27;45517;-68
2023/09/05 13:34:14;;;;;;;;;8.00;8.00;;;;;;;;5084711;27;45684;-68
2023/09/05 13:36:39;;;;;;;;;7.25;6.50;;;;;;;;5086580;27;45491;-68
2023/09/05 13:39:05;;;;;;;;;7.00;7.00;;;;;;;;5087094;27;45932;-68
2023/09/05 13:41:30;;;;;;;;;8.25;7.00;;;;;;;;5087895;27;45789;-68
2023/09/05 13:43:55;;;;;;;;;7.75;7.75;;;;;;;;5067427;27;45994;-70
2023/09/05 13:46:21;;;;;;;;;6.50;6.00;;;;;;;;5091205;27;46226;-67
2023/09/05 13:48:48;;;;;;;;;8.75;7.75;;;;;;;;5093504;27;45585;-70
2023/09/05 13:51:15;;;;;;;;;10.50;8.25;;;;;;;;5091531;27;45510;-68
2023/09/05 13:53:40;;;;;;;;;7.25;7.25;;;;;;;;5075362;27;45453;-69
2023/09/05 13:56:10;;;;;;;;;9.25;6.50;;;;;;;;5085476;27;46237;-69
2023/09/05 13:58:38;;;;;;;;;6.00;6.00;;;;;;;;5087716;27;45314;-67
2023/09/05 14:01:03;;;;;;;;;4.25;4.25;;;;;;;;5088978;27;45384;-68
2023/09/05 14:03:29;;;;;;;;;6.00;6.00;;;;;;;;5069073;27;45716;-68
2023/09/05 14:05:55;;;;;;;;;9.00;6.00;;;;;;;;5089903;27;46241;-66
2023/09/05 14:08:20;;;;;;;;;6.25;6.25;;;;;;;;5081851;27;45416;-69
2023/09/05 14:10:47;;;;;;;;;7.00;7.00;;;;;;;;5091266;27;45295;-67
2023/09/05 14:13:21;;;;;;;;;7.25;7.25;;;;;;;;5091399;27;45829;-70
2023/09/05 14:15:47;;;;;;;;;6.25;6.25;;;;;;;;5083191;27;45735;-70
2023/09/05 14:18:12;;;;;;;;;7.25;6.00;;;;;;;;5091812;27;46452;-67
2023/09/05 14:20:41;;;;;;;;;6.00;6.00;;;;;;;;5088150;27;45673;-68
2023/09/05 14:23:06;;;;;;;;;8.25;7.00;;;;;;;;5088431;27;45669;-68
2023/09/05 14:25:32;;;;;;;;;7.00;7.00;;;;;;;;5073175;27;45919;-68
2023/09/05 14:27:57;;;;;;;;;5.25;5.25;;;;;;;;5087077;27;45497;-69
2023/09/05 14:30:23;;;;;;;;;6.25;5.50;;;;;;;;5091523;27;45750;-68
2023/09/05 14:32:48;;;;;;;;;7.50;6.25;;;;;;;;5088128;27;45881;-71